Time;durP1;ratioP1;P1;durP2;ratioP2;P2;SDS_P1;SDS_P2;PMS_P1;PMS_P2;Temp;Humidity;BMP_temperature;BMP_pressure;BME280_temperature;BME280_humidity;BME280_pressure;Samples;Min_cycle;Max_cycle;Signal;HPM_P1;HPM_P2
2021/07/19 00:02:17;;;;;;;0.80;0.47;;;11.30;99.90;;;;;;5058928;28;20402;-87
2021/07/19 00:04:46;;;;;;;1.25;0.70;;;11.10;99.90;;;;;;5051797;28;20394;-87
2021/07/19 00:07:15;;;;;;;1.00;0.55;;;11.00;99.90;;;;;;5060689;28;20404;-85
2021/07/19 00:09:45;;;;;;;1.00;0.50;;;11.10;99.90;;;;;;5056592;28;20400;-86
2021/07/19 00:12:14;;;;;;;0.93;0.50;;;11.20;99.90;;;;;;5068003;28;20399;-87
2021/07/19 00:14:43;;;;;;;0.40;0.32;;;11.40;99.90;;;;;;5060296;28;20408;-88
2021/07/19 00:17:10;;;;;;;0.60;0.30;;;11.40;99.90;;;;;;5057874;28;21088;-87
2021/07/19 00:19:37;;;;;;;0.47;0.30;;;11.40;99.90;;;;;;5052623;28;20867;-90
2021/07/19 00:22:05;;;;;;;0.90;0.47;;;11.50;99.90;;;;;;5054181;28;20465;-89
2021/07/19 00:24:33;;;;;;;0.53;0.40;;;11.50;99.90;;;;;;5064769;28;20721;-87
2021/07/19 00:27:00;;;;;;;0.52;0.32;;;11.40;99.90;;;;;;5060452;28;20435;-88
2021/07/19 00:29:27;;;;;;;0.60;0.35;;;11.40;99.90;;;;;;5070009;28;20973;-89
2021/07/19 00:31:54;;;;;;;1.70;0.45;;;11.50;99.90;;;;;;5063469;28;20856;-87
2021/07/19 00:34:21;;;;;;;0.70;0.40;;;11.50;99.90;;;;;;5065963;28;20385;-87
2021/07/19 00:36:50;;;;;;;0.88;0.47;;;11.60;99.90;;;;;;5064950;28;20872;-88
2021/07/19 00:39:17;;;;;;;0.65;0.50;;;11.80;99.90;;;;;;5060251;28;20395;-90
2021/07/19 00:41:44;;;;;;;0.65;0.40;;;11.90;99.90;;;;;;5061064;28;20810;-90
2021/07/19 00:44:11;;;;;;;1.08;0.50;;;11.70;99.90;;;;;;5056593;28;20491;-88
2021/07/19 00:46:38;;;;;;;1.17;0.52;;;11.80;99.90;;;;;;5063486;28;20394;-89
2021/07/19 00:49:07;;;;;;;1.30;0.60;;;11.70;99.90;;;;;;5070229;28;20865;-90
2021/07/19 00:51:34;;;;;;;0.70;0.52;;;11.70;99.90;;;;;;5061813;28;20890;-89
2021/07/19 00:54:02;;;;;;;0.95;0.50;;;11.90;99.90;;;;;;5054366;28;20430;-90
2021/07/19 00:56:31;;;;;;;0.60;0.40;;;12.00;99.90;;;;;;5052651;28;20387;-89
2021/07/19 00:59:00;;;;;;;0.98;0.43;;;12.20;99.90;;;;;;5064994;28;20398;-90
2021/07/19 01:01:28;;;;;;;0.80;0.60;;;12.30;99.90;;;;;;5060383;28;20401;-90
2021/07/19 01:03:58;;;;;;;1.20;0.40;;;12.30;99.90;;;;;;5066041;28;20403;-90
2021/07/19 01:06:29;;;;;;;0.57;0.40;;;12.50;99.90;;;;;;5051865;28;20805;-93
2021/07/19 01:08:57;;;;;;;1.65;0.50;;;12.50;99.90;;;;;;5076857;28;20915;-94
2021/07/19 01:11:25;;;;;;;0.63;0.50;;;12.50;99.90;;;;;;5061213;28;21016;-91
2021/07/19 01:13:52;;;;;;;0.85;0.50;;;12.30;99.90;;;;;;5067616;28;20404;-87
2021/07/19 01:16:20;;;;;;;0.60;0.40;;;12.40;99.90;;;;;;5061283;28;20383;-90
2021/07/19 01:18:48;;;;;;;0.73;0.52;;;12.50;99.90;;;;;;5069739;28;20536;-88
2021/07/19 01:21:39;;;;;;;1.02;0.40;;;12.60;99.90;;;;;;5057776;28;20390;-90
2021/07/19 01:24:28;;;;;;;0.90;0.40;;;12.60;99.90;;;;;;5061839;28;20531;-89
2021/07/19 01:27:01;;;;;;;1.50;0.60;;;12.70;99.90;;;;;;5057636;28;20427;-91
2021/07/19 01:29:28;;;;;;;1.07;0.50;;;12.70;99.90;;;;;;5060753;28;20439;-90
2021/07/19 01:31:56;;;;;;;1.00;0.50;;;12.70;99.90;;;;;;5067690;28;20404;-91
2021/07/19 01:34:27;;;;;;;0.43;0.38;;;12.80;99.90;;;;;;5059117;28;20888;-86
2021/07/19 01:37:02;;;;;;;0.93;0.50;;;12.80;99.90;;;;;;5063809;28;22051;-89
2021/07/19 01:39:40;;;;;;;1.65;0.60;;;12.80;99.90;;;;;;5057622;28;20446;-88
2021/07/19 01:42:08;;;;;;;0.40;0.40;;;12.80;99.90;;;;;;5057643;28;20396;-93
2021/07/19 01:44:36;;;;;;;0.57;0.57;;;12.80;99.90;;;;;;5064808;28;20396;-87
2021/07/19 01:47:06;;;;;;;0.70;0.67;;;12.80;99.90;;;;;;5057562;28;20831;-93
2021/07/19 01:49:35;;;;;;;0.70;0.52;;;12.80;99.90;;;;;;5063359;28;20422;-93
2021/07/19 01:52:03;;;;;;;0.63;0.55;;;12.90;99.90;;;;;;5067483;28;20395;-96
2021/07/19 01:54:31;;;;;;;2.05;0.50;;;13.00;99.90;;;;;;5066988;28;20911;-91
2021/07/19 01:56:59;;;;;;;0.50;0.40;;;12.90;99.90;;;;;;5066600;28;20388;-87
2021/07/19 01:59:27;;;;;;;0.93;0.50;;;12.90;99.90;;;;;;5063576;28;20404;-91
2021/07/19 02:01:55;;;;;;;0.70;0.55;;;12.90;99.90;;;;;;5092500;28;20371;-90
2021/07/19 02:04:22;;;;;;;0.68;0.60;;;12.90;99.90;;;;;;5079102;28;20376;-92
2021/07/19 02:06:50;;;;;;;0.73;0.50;;;12.70;99.90;;;;;;5076718;28;20380;-92
2021/07/19 02:09:18;;;;;;;0.82;0.60;;;12.80;99.90;;;;;;5077052;28;20409;-94
2021/07/19 02:11:46;;;;;;;0.90;0.45;;;12.90;99.90;;;;;;5075240;28;20397;-92
2021/07/19 02:14:15;;;;;;;1.10;0.40;;;12.90;99.90;;;;;;5074691;28;20378;-92
2021/07/19 02:16:48;;;;;;;2.05;0.45;;;13.00;99.90;;;;;;5092815;28;20382;-88
2021/07/19 02:19:16;;;;;;;1.25;0.50;;;13.10;99.90;;;;;;5081817;28;20410;-95
2021/07/19 02:21:44;;;;;;;2.10;0.50;;;13.20;99.90;;;;;;5072968;28;20454;-93
2021/07/19 02:24:12;;;;;;;1.63;0.70;;;13.20;99.70;;;;;;5079621;28;20455;-93
2021/07/19 02:26:39;;;;;;;1.40;0.60;;;13.30;99.90;;;;;;5089467;28;20399;-86
2021/07/19 02:29:07;;;;;;;0.60;0.50;;;13.30;99.90;;;;;;5082993;28;20398;-91
2021/07/19 02:31:35;;;;;;;1.73;0.70;;;13.30;99.10;;;;;;5081311;28;20386;-95
2021/07/19 02:34:04;;;;;;;1.60;0.60;;;13.40;98.60;;;;;;5070300;28;20488;-91
2021/07/19 02:36:31;;;;;;;0.77;0.40;;;13.40;98.30;;;;;;5081206;28;20401;-93
2021/07/19 02:38:59;;;;;;;0.70;0.50;;;13.40;97.80;;;;;;5062120;28;20921;-93
2021/07/19 02:41:28;;;;;;;3.03;0.45;;;13.40;97.90;;;;;;5074856;28;20489;-93
2021/07/19 02:43:58;;;;;;;1.35;0.60;;;13.30;98.50;;;;;;5065497;28;20406;-94
2021/07/19 02:46:27;;;;;;;1.70;0.43;;;13.30;98.20;;;;;;5063368;28;20464;-92
2021/07/19 02:48:57;;;;;;;1.42;0.40;;;13.30;98.60;;;;;;5068870;28;20509;-96
2021/07/19 02:51:27;;;;;;;1.20;0.50;;;13.40;98.30;;;;;;5075102;28;20380;-94
2021/07/19 02:53:57;;;;;;;3.10;0.43;;;13.50;97.30;;;;;;5058459;28;21524;-94
2021/07/19 02:56:24;;;;;;;1.60;0.40;;;13.50;98.50;;;;;;5062000;28;20398;-93
2021/07/19 02:58:52;;;;;;;1.08;0.45;;;13.60;98.40;;;;;;5078704;28;20385;-90
2021/07/19 03:01:22;;;;;;;0.85;0.40;;;13.60;97.00;;;;;;5071810;28;20405;-91
2021/07/19 03:03:50;;;;;;;0.80;0.45;;;13.70;96.40;;;;;;5067653;28;20470;-92
2021/07/19 03:06:25;;;;;;;0.70;0.52;;;13.80;96.80;;;;;;5066644;28;20378;-94
2021/07/19 03:08:54;;;;;;;0.80;0.60;;;13.70;97.50;;;;;;5066397;28;20402;-93
2021/07/19 03:11:29;;;;;;;0.90;0.50;;;13.80;96.30;;;;;;5070607;28;20888;-93
2021/07/19 03:13:59;;;;;;;0.90;0.68;;;13.70;96.60;;;;;;5065741;28;20386;-94
2021/07/19 03:16:27;;;;;;;1.20;0.50;;;13.80;98.20;;;;;;5060897;28;20943;-93
2021/07/19 03:18:59;;;;;;;1.70;0.60;;;13.80;96.80;;;;;;5070764;28;20390;-93
2021/07/19 03:21:29;;;;;;;0.60;0.40;;;13.90;96.40;;;;;;5059793;28;20840;-95
2021/07/19 03:23:58;;;;;;;0.50;0.50;;;13.90;96.50;;;;;;5070398;28;20864;-93
2021/07/19 03:26:28;;;;;;;2.10;0.47;;;13.90;95.60;;;;;;5066199;28;20490;-95
2021/07/19 03:28:57;;;;;;;0.88;0.50;;;13.90;96.00;;;;;;5072820;28;20408;-94
2021/07/19 03:31:27;;;;;;;1.00;0.60;;;13.90;95.00;;;;;;5070919;28;20782;-94
2021/07/19 03:33:54;;;;;;;2.10;0.70;;;13.80;95.10;;;;;;5060096;28;20437;-89
2021/07/19 03:36:22;;;;;;;0.95;0.55;;;13.80;95.90;;;;;;5058311;28;20907;-89
2021/07/19 03:38:50;;;;;;;0.70;0.50;;;13.90;96.20;;;;;;5051166;28;20466;-87
2021/07/19 03:41:17;;;;;;;1.13;0.63;;;14.00;96.50;;;;;;5065973;28;20896;-90
2021/07/19 03:43:46;;;;;;;1.58;0.80;;;14.00;96.80;;;;;;5066163;28;20739;-88
2021/07/19 03:46:14;;;;;;;1.10;0.60;;;14.00;96.70;;;;;;5070401;28;20432;-88
2021/07/19 03:48:41;;;;;;;1.08;0.70;;;13.90;96.70;;;;;;5067913;28;20417;-86
2021/07/19 03:51:10;;;;;;;0.85;0.80;;;13.90;97.00;;;;;;5058932;28;20387;-88
2021/07/19 03:53:39;;;;;;;1.90;0.63;;;13.90;97.60;;;;;;5060202;28;20390;-92
2021/07/19 03:56:07;;;;;;;0.90;0.70;;;14.00;97.50;;;;;;5053361;28;20760;-89
2021/07/19 03:58:34;;;;;;;1.67;0.57;;;14.00;96.20;;;;;;5055073;28;20428;-92
2021/07/19 04:01:02;;;;;;;1.30;0.80;;;14.00;96.40;;;;;;5070755;28;20390;-91
2021/07/19 04:03:34;;;;;;;1.33;0.70;;;14.10;96.40;;;;;;5086363;28;20400;-89
2021/07/19 04:06:02;;;;;;;3.05;1.10;;;14.10;97.10;;;;;;5067296;28;20732;-91
2021/07/19 04:08:32;;;;;;;2.23;0.87;;;13.90;97.10;;;;;;5052857;28;20399;-91
2021/07/19 04:11:00;;;;;;;1.65;1.00;;;13.70;97.60;;;;;;5052319;28;20403;-96
2021/07/19 04:13:29;;;;;;;2.75;1.10;;;13.60;97.50;;;;;;5055133;28;20392;-91
2021/07/19 04:15:59;;;;;;;1.05;0.85;;;13.60;99.10;;;;;;5056121;28;20489;-89
2021/07/19 04:18:26;;;;;;;2.42;0.88;;;13.60;98.40;;;;;;5063832;28;20407;-91
2021/07/19 04:20:55;;;;;;;3.13;0.95;;;13.60;98.60;;;;;;5066751;28;20406;-94
2021/07/19 04:23:23;;;;;;;1.40;0.80;;;13.60;99.60;;;;;;5056411;28;20399;-92
2021/07/19 04:25:51;;;;;;;0.70;0.70;;;13.60;99.30;;;;;;5065365;28;22457;-92
2021/07/19 04:28:23;;;;;;;1.23;0.82;;;13.70;98.30;;;;;;5059687;28;20386;-90
2021/07/19 04:30:52;;;;;;;0.80;0.70;;;13.70;98.60;;;;;;5073848;28;20396;-89
2021/07/19 04:33:25;;;;;;;1.30;0.90;;;13.70;98.20;;;;;;5075932;28;20401;-90
2021/07/19 04:35:52;;;;;;;1.65;1.20;;;13.80;98.50;;;;;;5069692;28;20420;-90
2021/07/19 04:38:23;;;;;;;2.22;1.70;;;13.70;97.90;;;;;;5053133;28;20407;-93
2021/07/19 04:40:53;;;;;;;2.22;1.60;;;13.70;97.70;;;;;;5058625;28;20399;-90
2021/07/19 04:43:22;;;;;;;4.13;1.58;;;13.70;98.00;;;;;;5056937;28;20441;-89
2021/07/19 04:45:49;;;;;;;2.22;1.40;;;13.70;99.00;;;;;;5066688;28;20405;-93
2021/07/19 04:48:17;;;;;;;1.77;1.17;;;13.50;99.70;;;;;;5065081;28;20444;-89
2021/07/19 04:50:45;;;;;;;2.13;1.20;;;13.50;99.30;;;;;;5053676;28;21585;-91
2021/07/19 04:53:13;;;;;;;2.80;1.17;;;13.40;99.90;;;;;;5058594;28;20490;-87
2021/07/19 04:55:50;;;;;;;3.13;1.20;;;13.30;99.90;;;;;;5061491;28;20903;-89
2021/07/19 04:58:21;;;;;;;1.95;1.15;;;13.20;99.90;;;;;;5056985;28;20395;-90
2021/07/19 05:00:53;;;;;;;1.30;1.15;;;13.20;99.90;;;;;;5057409;28;20394;-91
2021/07/19 05:03:23;;;;;;;1.35;1.08;;;13.30;99.90;;;;;;5058209;28;20392;-86
2021/07/19 05:05:51;;;;;;;2.03;1.05;;;13.30;99.90;;;;;;5064261;28;20398;-92
2021/07/19 05:08:21;;;;;;;0.73;0.73;;;13.40;99.90;;;;;;5069503;28;20475;-89
2021/07/19 05:10:50;;;;;;;1.85;0.85;;;13.40;99.90;;;;;;5066713;28;20438;-91
2021/07/19 05:13:18;;;;;;;1.15;1.05;;;13.20;99.90;;;;;;5056978;28;20424;-91
2021/07/19 05:15:46;;;;;;;2.15;1.00;;;13.20;99.90;;;;;;5064581;28;20393;-92
2021/07/19 05:18:16;;;;;;;1.02;0.75;;;13.10;99.90;;;;;;5068170;28;20395;-92
2021/07/19 05:20:44;;;;;;;2.00;0.90;;;13.20;99.90;;;;;;5065093;28;20400;-90
2021/07/19 05:23:11;;;;;;;1.35;1.00;;;13.10;99.90;;;;;;5067640;28;20390;-92
2021/07/19 05:25:38;;;;;;;2.35;1.02;;;13.10;99.90;;;;;;5058087;28;20437;-91
2021/07/19 05:28:08;;;;;;;2.17;1.30;;;13.10;99.90;;;;;;5076565;28;20367;-91
2021/07/19 05:30:40;;;;;;;1.58;1.10;;;13.00;99.90;;;;;;5080729;28;20421;-89
2021/07/19 05:33:07;;;;;;;2.97;1.40;;;13.00;99.90;;;;;;5062333;28;20393;-92
2021/07/19 05:35:35;;;;;;;2.77;1.27;;;13.00;99.90;;;;;;5054226;28;20445;-90
2021/07/19 05:38:03;;;;;;;2.25;1.35;;;13.00;99.90;;;;;;5054832;28;20380;-90
2021/07/19 05:40:33;;;;;;;1.40;1.15;;;13.00;99.90;;;;;;5061399;28;20447;-89
2021/07/19 05:43:00;;;;;;;2.13;1.27;;;13.10;99.90;;;;;;5059840;28;20392;-90
2021/07/19 05:45:28;;;;;;;2.83;1.40;;;13.00;99.90;;;;;;5080817;28;20394;-89
2021/07/19 05:47:57;;;;;;;3.70;1.50;;;12.90;99.90;;;;;;5060452;28;20403;-91
2021/07/19 05:50:25;;;;;;;1.83;1.30;;;12.90;99.90;;;;;;5057265;28;20447;-89
2021/07/19 05:52:52;;;;;;;2.05;1.30;;;12.80;99.90;;;;;;5091844;28;20413;-90
2021/07/19 05:55:19;;;;;;;2.63;1.40;;;12.80;99.90;;;;;;5062603;28;20437;-91
2021/07/19 05:57:48;;;;;;;2.38;1.40;;;12.70;99.90;;;;;;5055326;28;20448;-89
2021/07/19 06:00:16;;;;;;;2.30;1.70;;;12.60;99.90;;;;;;5055530;28;20398;-90
2021/07/19 06:02:44;;;;;;;1.80;1.50;;;12.50;99.90;;;;;;5061620;28;20438;-91
2021/07/19 06:05:12;;;;;;;1.60;1.20;;;12.50;99.90;;;;;;5069174;28;20426;-89
2021/07/19 06:07:40;;;;;;;1.30;1.20;;;12.50;99.90;;;;;;5065949;28;20488;-88
2021/07/19 06:10:10;;;;;;;1.63;1.25;;;12.40;99.90;;;;;;5057375;28;20419;-90
2021/07/19 06:12:37;;;;;;;2.75;1.30;;;12.40;99.90;;;;;;5058632;28;20487;-90
2021/07/19 06:15:06;;;;;;;2.42;1.38;;;12.30;99.90;;;;;;5058796;28;20390;-88
2021/07/19 06:17:36;;;;;;;2.50;1.30;;;12.30;99.90;;;;;;5060732;28;20488;-87
2021/07/19 06:20:07;;;;;;;1.90;1.25;;;12.20;99.90;;;;;;5054543;28;20389;-91
2021/07/19 06:22:35;;;;;;;1.77;1.10;;;12.20;99.90;;;;;;5063481;28;20440;-90
2021/07/19 06:25:03;;;;;;;2.40;1.30;;;12.20;99.90;;;;;;5064674;28;20419;-89
2021/07/19 06:27:30;;;;;;;1.40;1.10;;;12.10;99.90;;;;;;5057514;28;20517;-90
2021/07/19 06:29:57;;;;;;;2.17;1.17;;;12.00;99.90;;;;;;5057263;28;20410;-91
2021/07/19 06:32:24;;;;;;;2.05;1.20;;;12.00;99.90;;;;;;5069887;28;20406;-91
2021/07/19 06:34:51;;;;;;;2.65;1.33;;;12.00;99.90;;;;;;5066692;28;20956;-90
2021/07/19 06:37:17;;;;;;;3.53;1.23;;;12.00;99.90;;;;;;5062168;28;20395;-88
2021/07/19 06:39:44;;;;;;;2.20;1.30;;;11.90;99.90;;;;;;5062986;28;20394;-90
2021/07/19 06:42:11;;;;;;;1.88;1.20;;;11.80;99.90;;;;;;5061669;28;20403;-89
2021/07/19 06:44:38;;;;;;;3.90;1.00;;;11.80;99.90;;;;;;5056407;28;20406;-88
2021/07/19 06:47:05;;;;;;;2.00;1.40;;;11.80;99.90;;;;;;5058466;28;20390;-88
2021/07/19 06:49:32;;;;;;;1.80;1.45;;;11.70;99.90;;;;;;5056804;28;20439;-87
2021/07/19 06:51:59;;;;;;;3.50;1.60;;;11.70;99.90;;;;;;5067688;28;20413;-87
2021/07/19 06:54:26;;;;;;;3.17;1.67;;;11.70;99.90;;;;;;5074178;28;20382;-86
2021/07/19 06:56:53;;;;;;;2.78;1.60;;;11.60;99.90;;;;;;5074525;28;20439;-88
2021/07/19 06:59:20;;;;;;;2.67;1.60;;;11.50;99.90;;;;;;5071533;28;20435;-88
2021/07/19 07:01:47;;;;;;;2.80;2.10;;;11.40;99.90;;;;;;5086260;28;20465;-87
2021/07/19 07:04:14;;;;;;;5.25;2.22;;;11.30;99.90;;;;;;5071046;28;20398;-89
2021/07/19 07:06:41;;;;;;;4.50;2.00;;;11.30;99.90;;;;;;5092367;28;20372;-89
2021/07/19 07:09:08;;;;;;;3.28;2.03;;;11.20;99.90;;;;;;5081225;28;20409;-88
2021/07/19 07:11:35;;;;;;;3.42;1.70;;;11.10;99.90;;;;;;5071124;28;20401;-89
2021/07/19 07:14:04;;;;;;;2.90;1.80;;;11.10;99.90;;;;;;5066098;28;20371;-88
2021/07/19 07:16:31;;;;;;;3.20;1.80;;;11.00;99.90;;;;;;5050778;28;20376;-87
2021/07/19 07:18:58;;;;;;;3.20;1.50;;;11.00;99.90;;;;;;5070478;28;20738;-89
2021/07/19 07:21:25;;;;;;;2.83;1.40;;;10.90;99.90;;;;;;5060195;28;20398;-88
2021/07/19 07:23:52;;;;;;;1.45;1.35;;;10.90;99.90;;;;;;5067267;28;21086;-91
2021/07/19 07:26:19;;;;;;;2.63;1.40;;;10.80;99.90;;;;;;5066984;28;20381;-88
2021/07/19 07:28:47;;;;;;;2.00;1.40;;;10.70;99.90;;;;;;5060699;28;20960;-89
2021/07/19 07:31:16;;;;;;;1.85;1.52;;;10.70;99.90;;;;;;5061568;28;20421;-87
2021/07/19 07:33:43;;;;;;;1.50;1.17;;;10.60;99.90;;;;;;5066141;28;20420;-89
2021/07/19 07:36:10;;;;;;;2.08;1.55;;;10.50;99.90;;;;;;5073172;28;20370;-88
2021/07/19 07:38:37;;;;;;;2.17;1.50;;;10.50;99.90;;;;;;5064567;28;20401;-91
2021/07/19 07:41:04;;;;;;;2.20;1.40;;;10.40;99.90;;;;;;5067601;28;20407;-87
2021/07/19 07:43:31;;;;;;;2.35;1.40;;;10.30;99.90;;;;;;5063296;28;20378;-92
2021/07/19 07:45:58;;;;;;;3.15;1.60;;;10.30;99.90;;;;;;5073552;28;20430;-92
2021/07/19 07:48:25;;;;;;;1.98;1.48;;;10.30;99.90;;;;;;5088840;28;20431;-93
2021/07/19 07:50:52;;;;;;;2.90;1.80;;;10.20;99.90;;;;;;5067922;28;20465;-90
2021/07/19 07:53:19;;;;;;;3.80;1.92;;;10.20;99.90;;;;;;5060079;28;20448;-90
2021/07/19 07:55:46;;;;;;;4.63;2.28;;;10.10;99.90;;;;;;5066654;28;20429;-88
2021/07/19 07:58:13;;;;;;;3.47;2.23;;;10.10;99.90;;;;;;5058075;28;20470;-92
2021/07/19 08:00:41;;;;;;;4.72;2.25;;;10.00;99.90;;;;;;5066307;28;20401;-87
2021/07/19 08:03:08;;;;;;;5.00;2.50;;;10.00;99.90;;;;;;5065994;28;20761;-90
2021/07/19 08:05:34;;;;;;;5.07;2.38;;;9.90;99.90;;;;;;5058843;28;20399;-92
2021/07/19 08:08:01;;;;;;;4.28;2.42;;;9.80;99.90;;;;;;5062997;28;20395;-92
2021/07/19 08:10:28;;;;;;;4.28;2.55;;;9.70;99.90;;;;;;5055429;28;20823;-89
2021/07/19 08:12:56;;;;;;;3.05;2.30;;;9.70;99.90;;;;;;5056397;28;20870;-92
2021/07/19 08:15:23;;;;;;;3.38;2.40;;;9.60;99.90;;;;;;5075732;28;20409;-90
2021/07/19 08:17:50;;;;;;;3.42;2.30;;;9.50;99.90;;;;;;5067369;28;20408;-89
2021/07/19 08:20:17;;;;;;;3.80;2.15;;;9.50;99.90;;;;;;5066189;28;20404;-92
2021/07/19 08:22:48;;;;;;;2.35;1.90;;;9.50;99.90;;;;;;5067079;28;20392;-92
2021/07/19 08:25:16;;;;;;;3.33;2.28;;;9.40;99.90;;;;;;5059895;28;20402;-90
2021/07/19 08:27:44;;;;;;;2.80;1.92;;;9.40;99.90;;;;;;5060095;28;20390;-94
2021/07/19 08:30:13;;;;;;;4.75;2.33;;;9.40;99.90;;;;;;5067258;28;20419;-92
2021/07/19 08:32:41;;;;;;;3.28;2.20;;;9.40;99.90;;;;;;5068329;28;20445;-94
2021/07/19 08:35:11;;;;;;;3.47;2.38;;;9.30;99.90;;;;;;5065730;28;20395;-95
2021/07/19 08:37:43;;;;;;;3.70;2.20;;;9.20;99.90;;;;;;5066558;28;20794;-88
2021/07/19 08:40:12;;;;;;;6.43;2.47;;;9.20;99.90;;;;;;5066716;28;20424;-92
2021/07/19 08:42:40;;;;;;;6.15;3.83;;;9.20;99.90;;;;;;5067308;28;20862;-89
2021/07/19 08:45:10;;;;;;;4.50;3.20;;;9.20;99.90;;;;;;5062163;28;20414;-87
2021/07/19 08:47:42;;;;;;;4.88;3.47;;;9.10;99.90;;;;;;5058846;28;20593;-88
2021/07/19 08:50:10;;;;;;;3.05;2.75;;;9.10;99.90;;;;;;5069311;28;20485;-90
2021/07/19 08:52:38;;;;;;;3.80;3.10;;;9.10;99.90;;;;;;5065892;28;20469;-92
2021/07/19 08:55:09;;;;;;;3.75;2.50;;;9.10;99.90;;;;;;5059675;28;20402;-92
2021/07/19 08:57:40;;;;;;;3.97;2.60;;;9.10;99.90;;;;;;5067225;28;20472;-90
2021/07/19 09:00:09;;;;;;;5.97;2.90;;;9.10;99.90;;;;;;5075517;28;20401;-93
2021/07/19 09:02:37;;;;;;;4.70;2.83;;;9.10;99.90;;;;;;5102885;28;20429;-90
2021/07/19 09:05:05;;;;;;;4.37;2.70;;;9.10;99.90;;;;;;5070716;28;20993;-88
2021/07/19 09:07:32;;;;;;;3.90;2.67;;;9.10;99.90;;;;;;5056919;28;20399;-92
2021/07/19 09:09:59;;;;;;;4.53;2.83;;;9.10;99.90;;;;;;5061013;28;20424;-92
2021/07/19 09:12:48;;;;;;;3.88;2.70;;;9.10;99.90;;;;;;5075075;28;20413;-92
2021/07/19 09:15:15;;;;;;;4.57;3.10;;;9.00;99.90;;;;;;5073390;28;20402;-91
2021/07/19 09:17:42;;;;;;;3.13;2.50;;;9.00;99.90;;;;;;5066392;28;20411;-93
2021/07/19 09:20:13;;;;;;;3.73;2.50;;;9.10;99.90;;;;;;5065114;28;20400;-90
2021/07/19 09:22:40;;;;;;;5.30;2.73;;;9.00;99.90;;;;;;5072158;28;20388;-91
2021/07/19 09:25:16;;;;;;;4.30;2.90;;;9.00;99.90;;;;;;5077764;28;20425;-92
2021/07/19 09:28:12;;;;;;;5.78;2.92;;;9.00;99.90;;;;;;5067505;28;20391;-93
2021/07/19 09:30:43;;;;;;;3.85;2.45;;;8.90;99.90;;;;;;5075796;28;20423;-94
2021/07/19 09:33:22;;;;;;;4.13;2.40;;;8.90;99.90;;;;;;5074308;28;20418;-91
2021/07/19 09:35:52;;;;;;;3.60;2.47;;;8.80;99.90;;;;;;5069336;28;20405;-93
2021/07/19 09:38:20;;;;;;;4.15;2.40;;;8.90;99.90;;;;;;5074568;28;20395;-94
2021/07/19 09:40:53;;;;;;;4.22;2.50;;;8.90;99.90;;;;;;5069688;28;20395;-91
2021/07/19 09:43:24;;;;;;;3.33;2.50;;;8.90;99.90;;;;;;5067753;28;20402;-93
2021/07/19 09:46:00;;;;;;;3.42;2.33;;;8.80;99.90;;;;;;5068456;28;20396;-93
2021/07/19 09:48:27;;;;;;;3.50;2.30;;;8.80;99.90;;;;;;5076794;28;20402;-95
2021/07/19 09:50:54;;;;;;;4.10;2.00;;;8.80;99.90;;;;;;5070764;28;20420;-92
2021/07/19 09:53:35;;;;;;;3.25;2.17;;;8.80;99.90;;;;;;5070325;28;20398;-90
2021/07/19 09:56:16;;;;;;;3.25;2.13;;;8.80;99.90;;;;;;5071974;28;20382;-89
2021/07/19 09:58:47;;;;;;;4.03;2.15;;;8.80;99.90;;;;;;5083276;28;20377;-91
2021/07/19 10:01:29;;;;;;;3.70;2.10;;;8.80;99.90;;;;;;5080396;28;20411;-89
2021/07/19 10:04:17;;;;;;;3.33;2.20;;;8.80;99.90;;;;;;5074148;28;20437;-91
2021/07/19 10:06:49;;;;;;;3.38;2.20;;;8.70;99.90;;;;;;5082577;28;20393;-92
2021/07/19 10:09:19;;;;;;;4.03;2.10;;;8.60;99.90;;;;;;5075009;28;20424;-91
2021/07/19 10:11:55;;;;;;;2.95;2.05;;;8.60;99.90;;;;;;5073916;28;20427;-93
2021/07/19 10:14:30;;;;;;;3.30;1.83;;;8.50;99.90;;;;;;5073306;28;20389;-92
2021/07/19 10:16:58;;;;;;;2.65;2.15;;;8.50;99.90;;;;;;5068268;28;20461;-92
2021/07/19 10:19:27;;;;;;;3.85;2.15;;;8.50;99.90;;;;;;5067756;28;20411;-93
2021/07/19 10:21:55;;;;;;;1.90;1.70;;;8.50;99.90;;;;;;5071149;28;20391;-92
2021/07/19 10:24:23;;;;;;;3.08;1.92;;;8.40;99.90;;;;;;5074031;28;20372;-93
2021/07/19 10:26:51;;;;;;;2.05;1.63;;;8.40;99.90;;;;;;5080583;28;20374;-93
2021/07/19 10:29:18;;;;;;;2.78;1.77;;;8.40;99.90;;;;;;5080658;28;20398;-93
2021/07/19 10:31:46;;;;;;;2.45;1.60;;;8.30;99.90;;;;;;5080603;28;20374;-88
2021/07/19 10:34:14;;;;;;;2.40;1.63;;;8.30;99.90;;;;;;5073283;28;20398;-92
2021/07/19 10:36:46;;;;;;;2.70;1.80;;;8.30;99.90;;;;;;5078435;28;20406;-93
2021/07/19 10:39:39;;;;;;;2.83;1.75;;;8.30;99.90;;;;;;5073311;28;20409;-93
2021/07/19 10:42:12;;;;;;;3.53;2.17;;;8.30;99.90;;;;;;5082562;28;20394;-95
2021/07/19 10:44:43;;;;;;;2.25;1.70;;;8.20;99.90;;;;;;5072662;28;20401;-94
2021/07/19 10:47:19;;;;;;;4.00;1.90;;;8.30;99.90;;;;;;5068599;28;20422;-93
2021/07/19 10:50:04;;;;;;;3.25;1.40;;;8.30;99.90;;;;;;5058428;28;20391;-95
2021/07/19 10:52:32;;;;;;;1.87;1.37;;;8.40;99.90;;;;;;5065429;28;20972;-94
2021/07/19 10:55:00;;;;;;;2.42;1.40;;;8.40;99.90;;;;;;5068799;28;20386;-95
2021/07/19 10:57:35;;;;;;;2.50;1.60;;;8.40;99.90;;;;;;5074112;28;20390;-94
2021/07/19 11:00:07;;;;;;;2.00;1.20;;;8.50;99.90;;;;;;5071196;28;20380;-93
2021/07/19 11:02:35;;;;;;;2.13;1.05;;;8.50;99.90;;;;;;5069910;28;20420;-95
2021/07/19 11:05:02;;;;;;;1.67;1.10;;;8.50;99.90;;;;;;5070283;28;20383;-95
2021/07/19 11:07:44;;;;;;;1.50;1.00;;;8.50;99.90;;;;;;5062409;28;20414;-92
2021/07/19 11:10:30;;;;;;;1.65;1.10;;;8.50;99.90;;;;;;5077117;28;20405;-91
2021/07/19 11:12:59;;;;;;;0.90;0.90;;;8.50;99.90;;;;;;5086411;28;20389;-94
2021/07/19 11:15:37;;;;;;;1.13;0.80;;;8.50;99.90;;;;;;5068241;28;20410;-94
2021/07/19 11:18:32;;;;;;;1.15;0.70;;;8.50;99.90;;;;;;5084290;28;20471;-93
2021/07/19 11:21:01;;;;;;;1.83;0.80;;;8.50;99.90;;;;;;5073408;28;20400;-92
2021/07/19 11:23:35;;;;;;;1.75;0.95;;;8.60;99.90;;;;;;5071200;28;20388;-88
2021/07/19 11:26:04;;;;;;;1.30;0.73;;;8.50;99.90;;;;;;5070058;28;20379;-91
2021/07/19 11:28:42;;;;;;;1.20;0.75;;;8.60;99.90;;;;;;5082247;28;20378;-93
2021/07/19 11:31:25;;;;;;;1.10;0.90;;;8.60;99.90;;;;;;5079112;28;20460;-91
2021/07/19 11:34:04;;;;;;;0.77;0.60;;;8.70;99.90;;;;;;5085601;28;20424;-93
2021/07/19 11:36:46;;;;;;;1.10;0.70;;;8.70;99.90;;;;;;5084272;28;20390;-93
2021/07/19 11:39:20;;;;;;;1.15;0.60;;;8.70;99.90;;;;;;5067201;28;20754;-93
2021/07/19 11:42:02;;;;;;;1.00;0.70;;;8.70;99.90;;;;;;5076261;28;20393;-91
2021/07/19 11:44:32;;;;;;;1.20;0.70;;;8.70;99.90;;;;;;5065417;28;20384;-86
2021/07/19 11:47:05;;;;;;;0.95;0.80;;;8.70;99.90;;;;;;5074188;28;20390;-95
2021/07/19 11:49:33;;;;;;;1.10;0.70;;;8.70;99.90;;;;;;5072520;28;20460;-95
2021/07/19 11:52:00;;;;;;;1.73;0.90;;;8.60;99.90;;;;;;5068833;28;20401;-92
2021/07/19 11:54:27;;;;;;;1.60;0.80;;;8.60;99.90;;;;;;5070487;28;20471;-93
2021/07/19 11:56:56;;;;;;;1.08;0.50;;;8.70;99.90;;;;;;5068333;28;20490;-87
2021/07/19 11:59:28;;;;;;;1.40;0.77;;;8.60;99.90;;;;;;5071591;28;20390;-92
2021/07/19 12:01:59;;;;;;;1.23;0.70;;;8.60;99.90;;;;;;5074208;28;20392;-93
2021/07/19 12:04:45;;;;;;;0.70;0.60;;;8.60;99.90;;;;;;5062862;28;20380;-92
2021/07/19 12:07:14;;;;;;;1.63;0.63;;;8.60;99.90;;;;;;5065146;28;20429;-92
2021/07/19 12:09:41;;;;;;;1.42;0.50;;;8.50;99.90;;;;;;5077821;28;21035;-89
2021/07/19 12:12:09;;;;;;;1.90;0.70;;;8.50;99.90;;;;;;5082035;28;20397;-90
2021/07/19 12:14:36;;;;;;;1.90;0.80;;;8.50;99.90;;;;;;5070159;28;20487;-93
2021/07/19 12:17:05;;;;;;;1.25;0.77;;;8.50;99.90;;;;;;5071578;28;20393;-92
2021/07/19 12:19:32;;;;;;;1.77;0.93;;;8.40;99.90;;;;;;5084479;28;20358;-92
2021/07/19 12:22:01;;;;;;;0.98;0.90;;;8.40;99.90;;;;;;5066650;28;21134;-92
2021/07/19 12:24:29;;;;;;;1.30;0.90;;;8.40;99.90;;;;;;5069747;28;20398;-93
2021/07/19 12:27:01;;;;;;;1.20;1.10;;;8.40;99.90;;;;;;5064394;28;20403;-92
2021/07/19 12:29:33;;;;;;;1.77;0.90;;;8.30;99.90;;;;;;5067929;28;20410;-91
2021/07/19 12:32:11;;;;;;;0.93;0.82;;;8.30;99.90;;;;;;5073678;28;20461;-93
2021/07/19 12:34:42;;;;;;;1.48;0.80;;;8.30;99.90;;;;;;5074603;28;20431;-94
2021/07/19 12:37:20;;;;;;;1.07;0.80;;;8.30;99.90;;;;;;5067337;28;20426;-91
2021/07/19 12:39:57;;;;;;;1.02;0.70;;;8.20;99.90;;;;;;5069033;28;20398;-93
2021/07/19 12:42:29;;;;;;;1.52;0.82;;;8.30;99.90;;;;;;5072341;28;20401;-91
2021/07/19 12:44:57;;;;;;;1.33;1.23;;;8.20;99.90;;;;;;5076470;28;20494;-93
2021/07/19 12:47:27;;;;;;;1.30;0.70;;;8.30;99.90;;;;;;5075579;28;20398;-87
2021/07/19 12:49:54;;;;;;;1.23;0.80;;;8.30;99.90;;;;;;5068543;28;20550;-92
2021/07/19 12:52:32;;;;;;;0.88;0.73;;;8.30;99.90;;;;;;5064508;28;20437;-93
2021/07/19 12:55:05;;;;;;;1.23;0.90;;;8.20;99.90;;;;;;5073665;28;20450;-92
2021/07/19 12:57:34;;;;;;;1.23;1.10;;;8.20;99.90;;;;;;5072594;28;20386;-91
2021/07/19 13:00:13;;;;;;;1.10;1.00;;;8.20;99.90;;;;;;5071269;28;20471;-94
2021/07/19 13:02:44;;;;;;;1.95;1.13;;;8.20;99.90;;;;;;5067832;28;20857;-93
2021/07/19 13:05:13;;;;;;;1.75;1.30;;;8.20;99.90;;;;;;5062527;28;20424;-91